This demonstration page uses our WeatherBlox Daily Observations layout. Learn more.

38.89511, -77.03637

Hourly Observations for July 8, 2017

Temp ( °F °C ) Dew Point ( °F °C ) Humidity (%) Winds ( mph kmh ) Pressure ( in mb ) Visibility ( mi km ) Precip ( " mm )
12:52 am 00:52 Mostly Clear 74 23.3 68 20 82 82 Calm 29.83 1010 10 16.09344 0 0
1:52 am 01:52 Mostly Clear 76 24.4 67 19.4 74 74 Calm 29.8 1009 10 16.09344 0 0
2:52 am 02:52 Mostly Cloudy 73 22.8 68 20 84 84 SW 5 7 29.8 1009 10 16.09344 0 0
3:52 am 03:52 Mostly Cloudy 72 22.2 68 20 87 87 SW 3 6 29.77 1008 10 16.09344 0 0
4:52 am 04:52 Mostly Cloudy 72 22.2 69 20.6 91 91 S 3 6 29.77 1008 10 16.09344 0 0
5:52 am 05:52 Mostly Cloudy 73 22.8 66 18.9 79 79 Calm 29.8 1009 10 16.09344 0 0
6:52 am 06:52 Mostly Cloudy 75 23.9 66 18.9 74 74 NW 3 6 29.8 1009 10 16.09344 0 0
7:52 am 07:52 Mostly Cloudy 78 25.6 66 18.9 67 67 WSW 3 6 29.83 1010 10 16.09344 0 0
8:52 am 08:52 Mostly Cloudy 78 25.6 65 18.3 64 64 NNW 12 19 29.83 1010 10 16.09344 0 0
9:52 am 09:52 Partly Cloudy 82 27.8 65 18.3 56 56 NW 10 17 29.83 1010 10 16.09344 0 0
10:52 am 10:52 Partly Cloudy 85 29.4 66 18.9 53 53 WNW 8 13 29.83 1010 10 16.09344 0 0
11:52 am 11:52 Partly Cloudy 87 30.6 66 18.9 50 50 WNW 10 17 29.83 1010 10 16.09344 0 0
12:52 pm 12:52 Mostly Cloudy 86 30 67 19.4 53 53 W 10 17 29.83 1010 10 16.09344 0 0
1:52 pm 13:52 Mostly Cloudy 87 30.6 67 19.4 51 51 WSW 8 13 29.83 1010 10 16.09344 0 0
2:52 pm 14:52 Mostly Cloudy 88 31.1 63 17.2 43 43 WNW 14 22 29.83 1010 10 16.09344 0 0
3:52 pm 15:52 Cloudy 90 32.2 63 17.2 41 41 NW 9 15 29.8 1009 10 16.09344 0 0
4:52 pm 16:52 Mostly Cloudy 89 31.7 61 16.1 39 39 WSW 15 24 29.8 1009 10 16.09344 0 0
5:52 pm 17:52 Mostly Cloudy 88 31.1 62 16.7 42 42 W 9 15 29.8 1009 10 16.09344 0 0
6:52 pm 18:52 Mostly Cloudy 88 31.1 59 15 38 38 W 14 22 29.83 1010 10 16.09344 0 0
7:00 pm 19:00 Mostly Cloudy 88 31.1 58 14.4 36 36 WNW 12 19 29.83 1010 10 16.09344 0 0
7:52 pm 19:52 Mostly Cloudy 86 30 57 13.9 37 37 WNW 12 19 29.83 1010 10 16.09344 0 0
8:52 pm 20:52 Partly Cloudy 79 26.1 58 14.4 49 49 NNW 14 22 29.88 1012 10 16.09344 0 0
9:52 pm 21:52 Partly Cloudy 77 25 59 15 54 54 NW 10 17 29.91 1013 10 16.09344 0 0
10:52 pm 22:52 Partly Cloudy 75 23.9 59 15 58 58 NNW 10 17 29.91 1013 10 16.09344 0 0
11:52 pm 23:52 Partly Cloudy 75 23.9 59 15 58 58 NW 10 17 29.91 1013 10 16.09344 0 0

Powered by AerisWeather